createdAt,value
2022-09-07T00:01:26.422Z,2.20
2022-09-07T00:03:56.767Z,2.28
2022-09-07T00:06:26.358Z,2.33
2022-09-07T00:08:55.206Z,1.95
2022-09-07T00:11:25.710Z,2.00
2022-09-07T00:13:54.599Z,2.15
2022-09-07T00:16:25.782Z,2.30
2022-09-07T00:18:55.870Z,2.15
2022-09-07T00:21:25.306Z,2.05
2022-09-07T00:23:54.378Z,2.08
2022-09-07T00:26:27.390Z,1.90
2022-09-07T00:28:59.049Z,2.33
2022-09-07T00:31:27.978Z,2.30
2022-09-07T00:33:59.036Z,1.80
2022-09-07T00:36:28.002Z,1.95
2022-09-07T00:38:56.995Z,2.10
2022-09-07T00:41:27.358Z,1.65
2022-09-07T00:43:57.653Z,1.80
2022-09-07T00:46:27.933Z,1.80
2022-09-07T00:49:00.521Z,1.60
2022-09-07T00:51:31.112Z,2.08
2022-09-07T00:54:02.822Z,1.73
2022-09-07T00:56:36.122Z,1.65
2022-09-07T00:59:05.206Z,2.00
2022-09-07T01:01:34.575Z,1.90
2022-09-07T01:04:04.114Z,2.20
2022-09-07T01:06:34.395Z,1.90
2022-09-07T01:09:06.398Z,1.80
2022-09-07T01:11:36.790Z,1.73
2022-09-07T01:14:06.900Z,1.55
2022-09-07T01:16:52.019Z,1.80
2022-09-07T01:20:01.693Z,1.65
2022-09-07T01:23:09.143Z,1.70
2022-09-07T01:25:44.186Z,1.65
2022-09-07T01:28:17.584Z,1.90
2022-09-07T01:30:53.454Z,1.90
2022-09-07T01:33:45.166Z,1.65
2022-09-07T01:36:23.124Z,1.70
2022-09-07T01:38:54.435Z,1.65
2022-09-07T01:41:26.514Z,1.48
2022-09-07T01:44:01.814Z,1.90
2022-09-07T01:46:35.285Z,1.55
2022-09-07T01:49:08.397Z,1.65
2022-09-07T01:51:38.164Z,1.50
2022-09-07T01:54:10.724Z,1.60
2022-09-07T01:56:42.058Z,1.73
2022-09-07T01:59:18.412Z,1.58
2022-09-07T02:01:50.349Z,1.55
2022-09-07T02:04:20.913Z,1.50
2022-09-07T02:06:51.222Z,1.65
2022-09-07T02:09:23.018Z,1.50
2022-09-07T02:11:51.955Z,1.63
2022-09-07T02:14:24.597Z,1.60
2022-09-07T02:16:57.324Z,1.80
2022-09-07T02:19:26.346Z,1.60
2022-09-07T02:21:59.534Z,1.60
2022-09-07T02:24:31.247Z,1.50
2022-09-07T02:27:00.304Z,1.70
2022-09-07T02:29:31.147Z,1.80
2022-09-07T02:32:00.373Z,1.88
2022-09-07T02:34:29.310Z,1.88
2022-09-07T02:36:58.418Z,1.80
2022-09-07T02:39:27.369Z,1.77
2022-09-07T02:41:56.290Z,1.75
2022-09-07T02:44:26.732Z,2.00
2022-09-07T02:47:07.280Z,1.80
2022-09-07T02:49:51.602Z,2.00
2022-09-07T02:52:24.221Z,1.90
2022-09-07T02:55:02.394Z,1.75
2022-09-07T02:57:39.517Z,2.00
2022-09-07T03:00:11.203Z,2.13
2022-09-07T03:02:53.378Z,1.70
2022-09-07T03:05:24.672Z,2.10
2022-09-07T03:07:56.407Z,2.60
2022-09-07T03:10:25.633Z,2.13
2022-09-07T03:12:54.246Z,2.10
2022-09-07T03:15:24.493Z,2.42
2022-09-07T03:17:54.454Z,2.80
2022-09-07T03:20:23.542Z,2.67
2022-09-07T03:22:52.837Z,2.92
2022-09-07T03:25:23.287Z,2.78
2022-09-07T03:27:51.771Z,2.80
2022-09-07T03:30:20.659Z,3.42
2022-09-07T03:32:49.218Z,2.70
2022-09-07T03:35:19.376Z,3.15
2022-09-07T03:37:47.948Z,3.30
2022-09-07T03:40:16.951Z,3.20
2022-09-07T03:42:49.187Z,3.05
2022-09-07T03:45:17.944Z,3.20
2022-09-07T03:47:46.581Z,3.42
2022-09-07T03:50:15.084Z,3.35
2022-09-07T03:52:45.108Z,3.42
2022-09-07T03:55:13.698Z,3.72
2022-09-07T03:57:43.689Z,3.38
2022-09-07T04:00:14.634Z,4.25
2022-09-07T04:02:43.283Z,3.92
2022-09-07T04:05:11.779Z,3.63
2022-09-07T04:07:40.460Z,3.70
2022-09-07T04:10:11.096Z,3.50
2022-09-07T04:12:39.948Z,3.85
2022-09-07T04:15:09.961Z,3.45
2022-09-07T04:17:39.839Z,3.83
2022-09-07T04:20:10.516Z,3.50
2022-09-07T04:22:39.065Z,3.25
2022-09-07T04:25:10.010Z,3.53
2022-09-07T04:27:38.634Z,3.35
2022-09-07T04:30:08.484Z,3.95
2022-09-07T04:32:37.166Z,3.42
2022-09-07T04:35:06.918Z,3.33
2022-09-07T04:37:35.502Z,4.03
2022-09-07T04:40:04.815Z,3.60
2022-09-07T04:42:34.818Z,3.60
2022-09-07T04:45:03.440Z,4.20
2022-09-07T04:47:31.946Z,3.35
2022-09-07T04:50:00.522Z,3.60
2022-09-07T04:52:29.058Z,3.80
2022-09-07T04:54:57.606Z,3.30
2022-09-07T04:57:26.734Z,3.35
2022-09-07T04:59:56.816Z,3.28
2022-09-07T05:02:25.417Z,3.72
2022-09-07T05:04:53.976Z,3.45
2022-09-07T05:07:22.578Z,3.30
2022-09-07T05:09:51.392Z,3.25
2022-09-07T05:12:19.871Z,3.20
2022-09-07T05:14:48.555Z,2.80
2022-09-07T05:17:19.345Z,3.05
2022-09-07T05:19:49.063Z,2.70
2022-09-07T05:22:17.660Z,2.92
2022-09-07T05:24:46.419Z,2.95
2022-09-07T05:27:14.892Z,2.80
2022-09-07T05:32:33.303Z,3.20
2022-09-07T05:35:01.950Z,3.30
2022-09-07T05:37:30.422Z,2.90
2022-09-07T05:39:59.084Z,2.63
2022-09-07T05:42:27.950Z,3.05
2022-09-07T05:44:56.692Z,2.95
2022-09-07T05:47:25.330Z,3.90
2022-09-07T05:49:57.028Z,3.20
2022-09-07T05:52:25.859Z,3.17
2022-09-07T05:54:59.245Z,3.20
2022-09-07T05:57:37.112Z,2.97
2022-09-07T06:00:07.141Z,3.25
2022-09-07T06:02:39.661Z,3.33
2022-09-07T06:05:11.288Z,3.78
2022-09-07T06:07:39.987Z,3.10
2022-09-07T06:12:59.206Z,3.25
2022-09-07T06:15:27.806Z,3.08
2022-09-07T06:17:56.309Z,3.40
2022-09-07T06:20:26.231Z,3.10
2022-09-07T06:22:55.065Z,3.60
2022-09-07T06:25:23.703Z,2.95
2022-09-07T06:27:54.031Z,3.08
2022-09-07T06:30:22.702Z,3.08
2022-09-07T06:32:51.299Z,2.92
2022-09-07T06:35:19.841Z,3.25
2022-09-07T06:37:49.671Z,3.45
2022-09-07T06:40:18.364Z,3.13
2022-09-07T06:42:46.844Z,2.88
2022-09-07T06:45:15.427Z,3.25
2022-09-07T06:47:43.817Z,3.33
2022-09-07T06:50:12.595Z,3.50
2022-09-07T06:55:30.935Z,3.13
2022-09-07T06:57:59.652Z,2.80
2022-09-07T07:00:28.129Z,3.13
2022-09-07T07:02:56.639Z,3.00
2022-09-07T07:05:25.148Z,2.90
2022-09-07T07:07:53.614Z,3.45
2022-09-07T07:10:24.823Z,3.08
2022-09-07T07:12:58.122Z,3.22
2022-09-07T07:15:28.514Z,3.25
2022-09-07T07:18:05.095Z,3.42
2022-09-07T07:20:38.118Z,2.50
2022-09-07T07:23:06.958Z,2.75
2022-09-07T07:25:35.676Z,2.90
2022-09-07T07:30:57.302Z,3.22
2022-09-07T07:33:26.115Z,2.90
2022-09-07T07:35:54.476Z,2.97
2022-09-07T07:44:03.372Z,2.95
2022-09-07T07:46:32.460Z,3.22
2022-09-07T07:49:01.116Z,3.45
2022-09-07T07:51:29.798Z,3.40
2022-09-07T07:54:00.177Z,3.03
2022-09-07T07:56:28.801Z,3.00
2022-09-07T07:58:57.502Z,3.10
2022-09-07T08:01:27.359Z,3.17
2022-09-07T08:03:55.917Z,2.97
2022-09-07T08:06:24.392Z,3.15
2022-09-07T08:08:53.107Z,2.83
2022-09-07T08:11:22.123Z,2.90
2022-09-07T08:13:51.859Z,3.08
2022-09-07T08:16:20.458Z,3.22
2022-09-07T08:18:50.248Z,2.80
2022-09-07T08:21:18.962Z,3.30
2022-09-07T08:23:47.520Z,2.88
2022-09-07T08:26:16.201Z,3.47
2022-09-07T08:28:45.612Z,3.15
2022-09-07T08:31:15.737Z,3.22
2022-09-07T08:33:44.275Z,3.00
2022-09-07T08:36:15.873Z,3.03
2022-09-07T08:38:44.344Z,3.10
2022-09-07T08:41:46.550Z,3.03
2022-09-07T08:44:19.641Z,3.13
2022-09-07T08:46:50.351Z,2.50
2022-09-07T08:49:21.619Z,3.10
2022-09-07T08:51:54.181Z,3.47
2022-09-07T08:54:22.673Z,3.33
2022-09-07T08:59:44.420Z,3.00
2022-09-07T09:02:32.580Z,3.65
2022-09-07T09:05:19.029Z,3.13
2022-09-07T09:07:55.701Z,3.00
2022-09-07T09:10:33.185Z,3.22
2022-09-07T09:13:06.333Z,3.63
2022-09-07T09:15:53.473Z,3.30
2022-09-07T09:18:32.400Z,3.40
2022-09-07T09:21:01.187Z,3.00
2022-09-07T09:23:35.589Z,3.35
2022-09-07T09:26:07.189Z,3.15
2022-09-07T09:28:35.650Z,3.50
2022-09-07T09:31:05.092Z,3.22
2022-09-07T09:33:33.591Z,3.38
2022-09-07T09:36:02.934Z,3.30
2022-09-07T09:38:35.442Z,3.33
2022-09-07T09:41:06.064Z,3.35
2022-09-07T09:43:42.383Z,3.05
2022-09-07T09:46:20.916Z,3.58
2022-09-07T09:48:55.865Z,3.00
2022-09-07T09:54:24.393Z,3.03
2022-09-07T09:56:53.208Z,3.35
2022-09-07T10:05:29.497Z,2.85
2022-09-07T10:07:58.293Z,3.38
2022-09-07T10:10:28.813Z,3.08
2022-09-07T10:12:57.507Z,3.42
2022-09-07T10:15:40.017Z,3.38
2022-09-07T10:18:18.976Z,3.60
2022-09-07T10:20:47.491Z,2.90
2022-09-07T10:23:23.358Z,2.75
2022-09-07T10:25:54.897Z,3.05
2022-09-07T10:28:25.152Z,2.83
2022-09-07T10:31:09.995Z,2.90
2022-09-07T10:36:39.390Z,3.20
2022-09-07T10:39:09.623Z,3.58
2022-09-07T10:41:44.390Z,3.08
2022-09-07T10:44:17.744Z,3.30
2022-09-07T10:46:57.625Z,3.22
2022-09-07T10:49:28.638Z,3.30
2022-09-07T10:52:05.715Z,3.30
2022-09-07T10:54:42.798Z,3.40
2022-09-07T10:57:39.404Z,3.20
2022-09-07T11:00:11.850Z,2.92
2022-09-07T11:03:30.883Z,3.10
2022-09-07T11:06:12.003Z,3.47
2022-09-07T11:09:17.888Z,3.80
2022-09-07T11:12:04.771Z,4.25
2022-09-07T11:14:39.090Z,3.60
2022-09-07T11:17:14.624Z,3.90
2022-09-07T11:19:47.742Z,3.38
2022-09-07T11:22:34.054Z,4.15
2022-09-07T11:27:59.041Z,3.65
2022-09-07T11:30:31.344Z,3.88
2022-09-07T11:33:06.250Z,4.15
2022-09-07T11:35:47.240Z,4.07
2022-09-07T11:38:25.685Z,3.70
2022-09-07T11:41:13.936Z,3.75
2022-09-07T11:43:45.003Z,4.03
2022-09-07T11:46:16.448Z,3.53
2022-09-07T11:48:46.737Z,3.95
2022-09-07T11:51:19.763Z,3.70
2022-09-07T11:53:51.959Z,4.13
2022-09-07T11:56:26.580Z,3.88
2022-09-07T11:59:22.506Z,4.03
2022-09-07T12:02:06.155Z,4.00
2022-09-07T12:04:56.555Z,4.20
2022-09-07T12:07:54.858Z,3.95
2022-09-07T12:10:54.910Z,3.80
2022-09-07T12:14:01.756Z,4.10
2022-09-07T12:16:41.242Z,3.53
2022-09-07T12:19:18.865Z,3.72
2022-09-07T12:21:49.152Z,3.80
2022-09-07T12:24:41.250Z,3.63
2022-09-07T12:27:38.692Z,3.92
2022-09-07T12:30:59.343Z,3.53
2022-09-07T12:33:35.990Z,3.80
2022-09-07T12:36:41.612Z,3.50
2022-09-07T12:39:28.699Z,3.72
2022-09-07T12:42:39.227Z,3.80
2022-09-07T12:45:49.723Z,3.42
2022-09-07T12:48:27.836Z,3.25
2022-09-07T12:50:59.038Z,3.25
2022-09-07T12:53:31.888Z,3.15
2022-09-07T12:56:34.752Z,3.45
2022-09-07T12:59:27.417Z,3.53
2022-09-07T13:01:59.866Z,3.53
2022-09-07T13:04:54.790Z,3.47
2022-09-07T13:07:44.363Z,3.22
2022-09-07T13:10:31.158Z,3.58
2022-09-07T13:13:04.935Z,3.40
2022-09-07T13:15:41.378Z,3.30
2022-09-07T13:18:13.585Z,3.70
2022-09-07T13:20:42.045Z,3.17
2022-09-07T13:23:25.160Z,3.17
2022-09-07T13:25:58.984Z,3.05
2022-09-07T13:28:31.821Z,3.33
2022-09-07T13:31:31.459Z,3.50
2022-09-07T13:34:00.554Z,2.90
2022-09-07T13:36:46.926Z,3.35
2022-09-07T13:39:16.866Z,3.15
2022-09-07T13:41:50.141Z,3.58
2022-09-07T13:44:25.905Z,3.00
2022-09-07T13:47:18.872Z,3.28
2022-09-07T13:50:16.822Z,3.15
2022-09-07T13:53:13.335Z,3.75
2022-09-07T13:55:45.304Z,3.15
2022-09-07T13:58:18.206Z,3.25
2022-09-07T14:00:57.065Z,3.50
2022-09-07T14:03:27.365Z,3.33
2022-09-07T14:06:15.694Z,3.35
2022-09-07T14:08:48.478Z,2.97
2022-09-07T14:11:20.639Z,3.03
2022-09-07T14:14:14.200Z,3.20
2022-09-07T14:16:44.111Z,3.38
2022-09-07T14:19:20.904Z,3.30
2022-09-07T14:22:00.653Z,3.10
2022-09-07T14:24:35.457Z,3.42
2022-09-07T14:27:04.282Z,3.25
2022-09-07T14:29:35.743Z,2.90
2022-09-07T14:32:05.207Z,3.20
2022-09-07T14:34:36.031Z,3.42
2022-09-07T14:37:07.228Z,3.20
2022-09-07T14:39:38.616Z,2.95
2022-09-07T14:42:08.128Z,2.92
2022-09-07T14:44:40.412Z,3.20
2022-09-07T14:47:13.187Z,3.50
2022-09-07T14:49:43.484Z,3.42
2022-09-07T14:52:17.345Z,3.53
2022-09-07T14:54:45.947Z,3.40
2022-09-07T14:57:32.010Z,4.38
2022-09-07T15:00:22.506Z,3.80
2022-09-07T15:02:50.923Z,4.57
2022-09-07T15:05:28.272Z,4.15
2022-09-07T15:07:58.651Z,4.18
2022-09-07T15:10:37.206Z,5.15
2022-09-07T15:13:07.277Z,4.63
2022-09-07T15:15:39.656Z,4.50
2022-09-07T15:18:54.611Z,4.38
2022-09-07T15:21:24.991Z,3.88
2022-09-07T15:23:54.060Z,3.50
2022-09-07T15:29:11.673Z,3.67
2022-09-07T15:31:44.658Z,3.65
2022-09-07T15:34:19.421Z,3.83
2022-09-07T15:36:49.071Z,3.40
2022-09-07T15:39:19.698Z,3.65
2022-09-07T15:41:49.697Z,3.65
2022-09-07T15:44:22.877Z,3.40
2022-09-07T15:49:50.041Z,3.33
2022-09-07T15:52:19.913Z,3.35
2022-09-07T15:54:48.322Z,3.53
2022-09-07T16:00:07.574Z,3.63
2022-09-07T16:05:30.960Z,3.92
2022-09-07T16:10:53.939Z,3.58
2022-09-07T16:13:24.262Z,3.60
2022-09-07T16:15:53.041Z,3.40
2022-09-07T16:18:22.876Z,3.30
2022-09-07T16:20:52.958Z,4.13
2022-09-07T16:23:21.703Z,3.05
2022-09-07T16:26:00.187Z,3.95
2022-09-07T16:28:28.861Z,3.03
2022-09-07T16:30:57.440Z,3.33
2022-09-07T16:33:36.085Z,3.30
2022-09-07T16:36:07.430Z,2.78
2022-09-07T16:38:51.368Z,3.38
2022-09-07T16:41:22.765Z,3.85
2022-09-07T16:43:51.480Z,3.58
2022-09-07T16:46:21.546Z,3.50
2022-09-07T16:48:51.733Z,3.10
2022-09-07T16:51:21.569Z,3.33
2022-09-07T16:53:50.340Z,3.53
2022-09-07T16:56:20.301Z,3.22
2022-09-07T16:58:50.309Z,3.10
2022-09-07T17:01:20.869Z,3.00
2022-09-07T17:03:51.244Z,3.13
2022-09-07T17:06:21.294Z,3.20
2022-09-07T17:08:49.693Z,3.13
2022-09-07T17:11:19.860Z,2.92
2022-09-07T17:13:48.940Z,3.20
2022-09-07T17:16:19.807Z,3.42
2022-09-07T17:21:39.573Z,3.28
2022-09-07T17:24:08.674Z,3.70
2022-09-07T17:26:37.182Z,3.28
2022-09-07T17:29:07.243Z,3.55
2022-09-07T17:34:27.524Z,3.17
2022-09-07T17:36:56.016Z,3.40
2022-09-07T17:39:24.588Z,3.42
2022-09-07T17:41:54.461Z,3.83
2022-09-07T17:44:24.394Z,2.90
2022-09-07T17:46:52.817Z,3.53
2022-09-07T17:49:21.377Z,3.47
2022-09-07T17:51:51.264Z,3.63
2022-09-07T17:54:19.685Z,3.50
2022-09-07T17:56:48.156Z,3.63
2022-09-07T18:02:05.346Z,4.00
2022-09-07T18:04:35.829Z,4.25
2022-09-07T18:07:06.090Z,4.30
2022-09-07T18:09:35.205Z,4.22
2022-09-07T18:12:04.561Z,4.03
2022-09-07T18:14:33.142Z,3.85
2022-09-07T18:17:01.704Z,4.28
2022-09-07T18:19:30.271Z,3.72
2022-09-07T18:21:58.728Z,4.18
2022-09-07T18:24:28.676Z,4.32
2022-09-07T18:26:58.251Z,4.22
2022-09-07T18:29:33.537Z,3.67
2022-09-07T18:32:05.729Z,3.95
2022-09-07T18:34:36.751Z,4.70
2022-09-07T18:37:05.458Z,4.40
2022-09-07T18:39:35.727Z,5.05
2022-09-07T18:42:04.423Z,4.47
2022-09-07T18:47:27.819Z,4.38
2022-09-07T18:49:57.159Z,4.50
2022-09-07T18:55:16.243Z,4.40
2022-09-07T18:57:44.951Z,4.18
2022-09-07T19:00:14.057Z,4.80
2022-09-07T19:02:42.588Z,5.00
2022-09-07T19:08:03.419Z,5.03
2022-09-07T19:10:36.195Z,5.13
2022-09-07T19:13:05.102Z,4.97
2022-09-07T19:15:37.482Z,4.47
2022-09-07T19:18:08.085Z,5.53
2022-09-07T19:20:36.692Z,5.38
2022-09-07T19:23:05.314Z,5.18
2022-09-07T19:25:35.042Z,5.43
2022-09-07T19:28:04.007Z,4.97
2022-09-07T19:30:34.739Z,5.30
2022-09-07T19:33:04.470Z,4.93
2022-09-07T19:35:37.020Z,5.00
2022-09-07T19:38:05.839Z,5.43
2022-09-07T19:40:35.723Z,5.32
2022-09-07T19:43:04.196Z,5.03
2022-09-07T19:45:32.921Z,4.57
2022-09-07T19:48:01.338Z,5.40
2022-09-07T19:50:29.765Z,4.82
2022-09-07T19:53:00.417Z,4.90
2022-09-07T19:55:28.857Z,5.57
2022-09-07T19:57:58.897Z,5.38
2022-09-07T20:00:27.423Z,5.20
2022-09-07T20:02:56.299Z,5.32
2022-09-07T20:05:29.214Z,5.43
2022-09-07T20:07:57.618Z,5.60
2022-09-07T20:10:26.035Z,5.40
2022-09-07T20:12:54.692Z,5.80
2022-09-07T20:15:24.876Z,4.93
2022-09-07T20:17:53.948Z,5.50
2022-09-07T20:20:22.580Z,5.40
2022-09-07T20:22:51.366Z,5.65
2022-09-07T20:25:19.788Z,5.40
2022-09-07T20:27:48.248Z,5.53
2022-09-07T20:30:17.876Z,5.97
2022-09-07T20:32:47.972Z,5.60
2022-09-07T20:35:16.656Z,5.28
2022-09-07T20:37:45.112Z,5.55
2022-09-07T20:40:13.762Z,6.20
2022-09-07T20:42:42.194Z,6.22
2022-09-07T20:45:11.916Z,6.60
2022-09-07T20:47:40.479Z,6.30
2022-09-07T20:50:11.337Z,6.40
2022-09-07T20:52:39.802Z,5.82
2022-09-07T20:55:09.522Z,6.20
2022-09-07T20:57:38.122Z,5.68
2022-09-07T21:00:09.007Z,6.45
2022-09-07T21:02:37.917Z,5.65
2022-09-07T21:05:07.894Z,6.10
2022-09-07T21:07:39.015Z,6.07
2022-09-07T21:10:08.891Z,6.25
2022-09-07T21:12:37.400Z,6.20
2022-09-07T21:15:06.982Z,6.68
2022-09-07T21:17:35.433Z,6.40
2022-09-07T21:20:05.072Z,6.30
2022-09-07T21:22:33.564Z,5.95
2022-09-07T21:25:03.324Z,5.90
2022-09-07T21:27:38.149Z,5.53
2022-09-07T21:30:08.085Z,5.30
2022-09-07T21:32:36.652Z,5.78
2022-09-07T21:35:05.664Z,5.75
2022-09-07T21:37:34.077Z,5.80
2022-09-07T21:40:05.882Z,5.35
2022-09-07T21:42:34.411Z,5.35
2022-09-07T21:45:03.063Z,5.10
2022-09-07T21:47:31.660Z,5.35
2022-09-07T21:50:00.194Z,5.60
2022-09-07T21:52:28.905Z,5.72
2022-09-07T21:54:57.293Z,5.50
2022-09-07T21:57:27.361Z,5.25
2022-09-07T21:59:56.032Z,5.35
2022-09-07T22:02:24.508Z,5.50
2022-09-07T22:04:53.161Z,5.80
2022-09-07T22:07:21.670Z,5.30
2022-09-07T22:09:50.013Z,5.75
2022-09-07T22:12:19.987Z,5.45
2022-09-07T22:14:50.177Z,5.13
2022-09-07T22:17:18.576Z,5.32
2022-09-07T22:19:46.967Z,5.15
2022-09-07T22:22:15.327Z,5.40
2022-09-07T22:24:43.868Z,5.30
2022-09-07T22:27:12.411Z,5.47
2022-09-07T22:29:40.791Z,5.53
2022-09-07T22:32:10.692Z,5.68
2022-09-07T22:34:39.923Z,5.28
2022-09-07T22:37:08.351Z,4.90
2022-09-07T22:39:37.108Z,5.35
2022-09-07T22:42:06.151Z,4.93
2022-09-07T22:44:34.611Z,4.95
2022-09-07T22:47:03.035Z,5.28
2022-09-07T22:49:32.908Z,5.20
2022-09-07T22:52:01.367Z,5.57
2022-09-07T22:54:29.745Z,5.28
2022-09-07T22:56:58.251Z,5.47
2022-09-07T22:59:26.745Z,4.97
2022-09-07T23:01:55.561Z,5.22
2022-09-07T23:04:27.347Z,5.07
2022-09-07T23:06:59.776Z,4.65
2022-09-07T23:09:28.427Z,5.07
2022-09-07T23:11:57.087Z,5.20
2022-09-07T23:14:25.516Z,5.05
2022-09-07T23:16:53.968Z,5.50
2022-09-07T23:19:22.671Z,4.78
2022-09-07T23:21:51.168Z,5.10
2022-09-07T23:24:21.674Z,5.28
2022-09-07T23:26:50.288Z,5.20
2022-09-07T23:29:20.785Z,4.40
2022-09-07T23:31:49.330Z,4.93
2022-09-07T23:34:18.171Z,4.90
2022-09-07T23:36:46.551Z,5.10
2022-09-07T23:39:14.985Z,5.03
2022-09-07T23:41:44.881Z,5.00
2022-09-07T23:44:13.584Z,4.82
2022-09-07T23:46:42.134Z,5.05
2022-09-07T23:49:10.580Z,5.22
2022-09-07T23:51:39.073Z,4.60
2022-09-07T23:54:07.961Z,5.13
2022-09-07T23:56:37.982Z,5.07
2022-09-07T23:59:07.875Z,4.95
